createdAt,value
2022-11-01T00:06:11.453Z,100623.03
2022-11-01T00:16:33.086Z,100610.91
2022-11-01T00:26:54.419Z,100612.81
2022-11-01T00:37:15.749Z,100609.50
2022-11-01T00:47:37.116Z,100596.66
2022-11-01T00:57:58.577Z,100574.81
2022-11-01T01:08:20.917Z,100581.22
2022-11-01T01:18:42.249Z,100552.94
2022-11-01T01:29:03.686Z,100549.25
2022-11-01T01:39:25.077Z,100534.28
2022-11-01T01:49:47.099Z,100531.81
2022-11-01T02:00:08.990Z,100517.53
2022-11-01T02:10:31.007Z,100505.44
2022-11-01T02:21:03.570Z,100478.31
2022-11-01T02:31:35.614Z,100473.91
2022-11-01T02:42:05.487Z,100460.47
2022-11-01T02:52:28.956Z,100452.00
2022-11-01T03:03:03.154Z,100423.72
2022-11-01T03:13:47.886Z,100427.41
2022-11-01T03:24:16.711Z,100423.34
2022-11-01T03:34:39.014Z,100427.94
2022-11-01T03:45:04.225Z,100420.69
2022-11-01T03:55:25.542Z,100401.69
2022-11-01T04:05:46.877Z,100416.63
2022-11-01T04:16:28.066Z,100428.50
2022-11-01T04:26:49.412Z,100437.63
2022-11-01T04:37:11.291Z,100431.91
2022-11-01T04:47:32.742Z,100428.91
2022-11-01T04:57:54.324Z,100426.72
2022-11-01T05:08:15.795Z,100409.56
2022-11-01T05:18:40.763Z,100420.75
2022-11-01T05:29:08.819Z,100412.19
2022-11-01T05:39:34.783Z,100418.59
2022-11-01T05:49:56.103Z,100423.06
2022-11-01T06:00:17.600Z,100437.75
2022-11-01T06:10:38.938Z,100439.25
2022-11-01T06:21:00.370Z,100438.75
2022-11-01T06:31:22.113Z,100444.72
2022-11-01T06:41:43.441Z,100455.56
2022-11-01T06:52:05.104Z,100479.81
2022-11-01T07:02:29.713Z,100496.56
2022-11-01T07:12:51.489Z,100514.56
2022-11-01T07:23:14.566Z,100529.50
2022-11-01T07:33:36.211Z,100551.41
2022-11-01T07:43:57.607Z,100550.09
2022-11-01T07:54:18.945Z,100576.94
2022-11-01T08:04:40.361Z,100581.84
2022-11-01T08:15:04.659Z,100603.13
2022-11-01T08:25:26.391Z,100631.84
2022-11-01T08:35:50.732Z,100632.06
2022-11-01T08:46:12.215Z,100641.19
2022-11-01T08:56:33.675Z,100658.59
2022-11-01T09:06:55.556Z,100680.44
2022-11-01T09:17:16.898Z,100685.88
2022-11-01T09:27:38.800Z,100714.81
2022-11-01T09:38:01.245Z,100736.25
2022-11-01T09:48:24.070Z,100744.00
2022-11-01T09:59:04.335Z,100747.97
2022-11-01T10:09:45.803Z,100765.63
2022-11-01T10:20:09.068Z,100793.81
2022-11-01T10:30:34.655Z,100803.22
2022-11-01T10:41:00.998Z,100805.47
2022-11-01T10:51:27.826Z,100803.06
2022-11-01T11:07:50.633Z,100809.78
2022-11-01T11:18:25.715Z,100811.81
2022-11-01T11:28:51.669Z,100828.03
2022-11-01T11:39:37.683Z,100838.53
2022-11-01T11:50:00.636Z,100834.44
2022-11-01T12:00:27.354Z,100842.81
2022-11-01T12:10:57.455Z,100858.97
2022-11-01T12:21:33.674Z,100863.28
2022-11-01T12:32:00.674Z,100867.25
2022-11-01T12:42:32.948Z,100868.13
2022-11-01T12:53:05.210Z,100856.81
2022-11-01T13:03:42.180Z,100864.06
2022-11-01T13:14:41.367Z,100883.94
2022-11-01T13:25:19.322Z,100894.81
2022-11-01T13:35:59.022Z,100886.63
2022-11-01T13:46:38.593Z,100896.88
2022-11-01T13:57:12.533Z,100895.72
2022-11-01T14:07:43.284Z,100906.19
2022-11-01T14:18:05.157Z,100903.09
2022-11-01T14:28:30.807Z,100905.00
2022-11-01T14:39:09.237Z,100921.28
2022-11-01T14:49:42.251Z,100897.47
2022-11-01T15:00:23.064Z,100904.44
2022-11-01T15:10:44.904Z,100916.91
2022-11-01T15:21:06.911Z,100907.25
2022-11-01T15:31:29.153Z,100912.91
2022-11-01T15:41:51.540Z,100914.03
2022-11-01T15:52:35.028Z,100928.44
2022-11-01T16:03:07.582Z,100940.75
2022-11-01T16:13:31.991Z,100938.38
2022-11-01T16:24:09.550Z,100956.06
2022-11-01T16:34:34.492Z,100963.69
2022-11-01T16:44:56.517Z,100963.56
2022-11-01T16:55:18.397Z,100954.56
2022-11-01T17:05:41.178Z,100947.38
2022-11-01T17:16:03.832Z,100972.59
2022-11-01T17:26:26.502Z,100974.97
2022-11-01T17:36:49.742Z,100973.38
2022-11-01T17:47:14.590Z,100988.25
2022-11-01T17:57:36.082Z,100994.63
2022-11-01T18:07:58.688Z,100996.66
2022-11-01T18:19:01.649Z,100994.34
2022-11-01T18:29:23.919Z,100999.97
2022-11-01T18:40:01.117Z,101002.28
2022-11-01T18:50:26.067Z,100996.09
2022-11-01T19:01:08.529Z,100987.25
2022-11-01T19:11:31.538Z,100992.22
2022-11-01T19:21:59.024Z,100983.66
2022-11-01T19:32:24.488Z,100987.03
2022-11-01T19:42:46.370Z,100974.13
2022-11-01T19:53:32.391Z,100969.84
2022-11-01T20:03:56.766Z,100966.94
2022-11-01T20:14:18.323Z,100971.16
2022-11-01T20:24:39.783Z,100963.00
2022-11-01T20:35:01.835Z,100984.34
2022-11-01T20:45:23.371Z,100977.91
2022-11-01T20:55:44.957Z,100977.28
2022-11-01T21:06:11.622Z,100982.53
2022-11-01T21:16:33.029Z,100982.53
2022-11-01T21:27:14.759Z,100982.00
2022-11-01T21:37:36.167Z,100976.50
2022-11-01T21:48:02.862Z,100955.91
2022-11-01T21:58:24.698Z,100951.50
2022-11-01T22:08:46.134Z,100933.84
2022-11-01T22:19:07.627Z,100936.16
2022-11-01T22:29:29.058Z,100929.25
2022-11-01T22:39:53.047Z,100926.88
2022-11-01T22:50:26.371Z,100927.28
2022-11-01T23:00:49.742Z,100926.69
2022-11-01T23:11:44.702Z,100919.25
2022-11-01T23:22:18.865Z,100912.69
2022-11-01T23:32:40.194Z,100902.34
2022-11-01T23:43:02.042Z,100886.13
2022-11-01T23:53:33.750Z,100869.84
